sensor_id;sensor_type;location;lat;lon;timestamp;temperature;humidity
29201;DHT22;16244;51.956;12.980;2023-04-06T00:01:02;1.50;92.90
29201;DHT22;16244;51.956;12.980;2023-04-06T00:03:29;1.50;92.70
29201;DHT22;16244;51.956;12.980;2023-04-06T00:05:57;1.40;93.00
29201;DHT22;16244;51.956;12.980;2023-04-06T00:08:25;1.20;93.10
29201;DHT22;16244;51.956;12.980;2023-04-06T00:10:54;1.10;93.50
29201;DHT22;16244;51.956;12.980;2023-04-06T00:13:21;1.10;93.70
29201;DHT22;16244;51.956;12.980;2023-04-06T00:15:49;1.10;93.60
29201;DHT22;16244;51.956;12.980;2023-04-06T00:18:16;1.00;93.80
29201;DHT22;16244;51.956;12.980;2023-04-06T00:20:44;1.00;93.90
29201;DHT22;16244;51.956;12.980;2023-04-06T00:23:16;1.10;93.70
29201;DHT22;16244;51.956;12.980;2023-04-06T00:25:48;1.00;93.70
29201;DHT22;16244;51.956;12.980;2023-04-06T00:28:18;0.90;94.00
29201;DHT22;16244;51.956;12.980;2023-04-06T00:30:51;0.90;94.60
29201;DHT22;16244;51.956;12.980;2023-04-06T00:33:21;0.90;94.60
29201;DHT22;16244;51.956;12.980;2023-04-06T00:35:49;0.80;94.30
29201;DHT22;16244;51.956;12.980;2023-04-06T00:38:17;0.80;94.80
29201;DHT22;16244;51.956;12.980;2023-04-06T00:40:44;0.80;94.50
29201;DHT22;16244;51.956;12.980;2023-04-06T00:43:12;0.80;94.40
29201;DHT22;16244;51.956;12.980;2023-04-06T00:45:42;0.80;94.60
29201;DHT22;16244;51.956;12.980;2023-04-06T00:48:09;0.80;94.60
29201;DHT22;16244;51.956;12.980;2023-04-06T00:50:36;0.70;94.80
29201;DHT22;16244;51.956;12.980;2023-04-06T00:53:04;0.50;95.00
29201;DHT22;16244;51.956;12.980;2023-04-06T00:55:31;0.40;95.40
29201;DHT22;16244;51.956;12.980;2023-04-06T00:57:59;0.40;95.30
29201;DHT22;16244;51.956;12.980;2023-04-06T01:00:27;0.40;95.20
29201;DHT22;16244;51.956;12.980;2023-04-06T01:02:55;0.30;95.30
29201;DHT22;16244;51.956;12.980;2023-04-06T01:05:23;0.30;95.40
29201;DHT22;16244;51.956;12.980;2023-04-06T01:07:50;0.30;95.80
29201;DHT22;16244;51.956;12.980;2023-04-06T01:10:25;0.40;95.80
29201;DHT22;16244;51.956;12.980;2023-04-06T01:12:52;0.40;95.90
29201;DHT22;16244;51.956;12.980;2023-04-06T01:15:20;0.40;96.00
29201;DHT22;16244;51.956;12.980;2023-04-06T01:17:48;0.30;95.90
29201;DHT22;16244;51.956;12.980;2023-04-06T01:20:18;0.40;95.50
29201;DHT22;16244;51.956;12.980;2023-04-06T01:22:46;0.50;95.70
29201;DHT22;16244;51.956;12.980;2023-04-06T01:25:14;0.60;96.20
29201;DHT22;16244;51.956;12.980;2023-04-06T01:27:41;0.50;95.50
29201;DHT22;16244;51.956;12.980;2023-04-06T01:30:09;0.50;95.80
29201;DHT22;16244;51.956;12.980;2023-04-06T01:32:37;0.40;95.50
29201;DHT22;16244;51.956;12.980;2023-04-06T01:35:05;0.40;96.00
29201;DHT22;16244;51.956;12.980;2023-04-06T01:37:32;0.30;96.20
29201;DHT22;16244;51.956;12.980;2023-04-06T01:40:01;0.30;96.40
29201;DHT22;16244;51.956;12.980;2023-04-06T01:42:28;0.40;96.20
29201;DHT22;16244;51.956;12.980;2023-04-06T01:44:56;0.30;96.30
29201;DHT22;16244;51.956;12.980;2023-04-06T01:47:23;0.20;96.20
29201;DHT22;16244;51.956;12.980;2023-04-06T01:49:51;0.10;96.60
29201;DHT22;16244;51.956;12.980;2023-04-06T01:52:18;0.10;96.10
29201;DHT22;16244;51.956;12.980;2023-04-06T01:54:47;0.20;95.70
29201;DHT22;16244;51.956;12.980;2023-04-06T01:57:15;0.20;95.80
29201;DHT22;16244;51.956;12.980;2023-04-06T01:59:43;0.20;96.20
29201;DHT22;16244;51.956;12.980;2023-04-06T02:02:10;0.20;96.30
29201;DHT22;16244;51.956;12.980;2023-04-06T02:04:39;0.20;96.20
29201;DHT22;16244;51.956;12.980;2023-04-06T02:07:06;0.10;95.90
29201;DHT22;16244;51.956;12.980;2023-04-06T02:09:33;0.10;96.30
29201;DHT22;16244;51.956;12.980;2023-04-06T02:12:01;0.00;96.50
29201;DHT22;16244;51.956;12.980;2023-04-06T02:14:30;-0.10;96.60
29201;DHT22;16244;51.956;12.980;2023-04-06T02:16:57;-0.20;96.80
29201;DHT22;16244;51.956;12.980;2023-04-06T02:19:25;-0.10;96.80
29201;DHT22;16244;51.956;12.980;2023-04-06T02:21:53;-0.10;96.80
29201;DHT22;16244;51.956;12.980;2023-04-06T02:24:20;0.00;96.40
29201;DHT22;16244;51.956;12.980;2023-04-06T02:26:47;-0.30;96.90
29201;DHT22;16244;51.956;12.980;2023-04-06T02:29:15;-0.50;97.50
29201;DHT22;16244;51.956;12.980;2023-04-06T02:31:44;-0.40;96.80
29201;DHT22;16244;51.956;12.980;2023-04-06T02:34:11;-0.40;96.70
29201;DHT22;16244;51.956;12.980;2023-04-06T02:36:44;-0.30;96.60
29201;DHT22;16244;51.956;12.980;2023-04-06T02:39:11;-0.60;96.80
29201;DHT22;16244;51.956;12.980;2023-04-06T02:41:39;-0.80;97.80
29201;DHT22;16244;51.956;12.980;2023-04-06T02:44:07;-0.60;97.90
29201;DHT22;16244;51.956;12.980;2023-04-06T02:46:35;-0.50;97.90
29201;DHT22;16244;51.956;12.980;2023-04-06T02:49:04;-0.50;97.80
29201;DHT22;16244;51.956;12.980;2023-04-06T02:51:32;-0.40;97.80
29201;DHT22;16244;51.956;12.980;2023-04-06T02:54:00;-0.40;96.90
29201;DHT22;16244;51.956;12.980;2023-04-06T02:56:27;-0.30;96.60
29201;DHT22;16244;51.956;12.980;2023-04-06T02:58:54;-0.30;96.60
29201;DHT22;16244;51.956;12.980;2023-04-06T03:01:22;-0.40;97.00
29201;DHT22;16244;51.956;12.980;2023-04-06T03:03:49;-0.40;96.80
29201;DHT22;16244;51.956;12.980;2023-04-06T03:06:18;-0.30;96.60
29201;DHT22;16244;51.956;12.980;2023-04-06T03:08:45;-0.30;97.00
29201;DHT22;16244;51.956;12.980;2023-04-06T03:11:13;-0.40;96.60
29201;DHT22;16244;51.956;12.980;2023-04-06T03:13:40;-0.40;96.20
29201;DHT22;16244;51.956;12.980;2023-04-06T03:16:08;-0.40;96.30
29201;DHT22;16244;51.956;12.980;2023-04-06T03:18:35;-0.50;96.80
29201;DHT22;16244;51.956;12.980;2023-04-06T03:21:03;-0.50;96.90
29201;DHT22;16244;51.956;12.980;2023-04-06T03:23:32;-0.50;97.20
29201;DHT22;16244;51.956;12.980;2023-04-06T03:25:59;-0.50;97.30
29201;DHT22;16244;51.956;12.980;2023-04-06T03:28:27;-0.50;97.40
29201;DHT22;16244;51.956;12.980;2023-04-06T03:30:54;-0.50;97.40
29201;DHT22;16244;51.956;12.980;2023-04-06T03:33:22;-0.60;97.40
29201;DHT22;16244;51.956;12.980;2023-04-06T03:35:49;-0.70;97.90
29201;DHT22;16244;51.956;12.980;2023-04-06T03:38:16;-0.70;98.10
29201;DHT22;16244;51.956;12.980;2023-04-06T03:40:45;-0.60;98.30
29201;DHT22;16244;51.956;12.980;2023-04-06T03:43:13;-0.70;98.40
29201;DHT22;16244;51.956;12.980;2023-04-06T03:45:40;-0.70;98.50
29201;DHT22;16244;51.956;12.980;2023-04-06T03:48:08;-0.50;98.00
29201;DHT22;16244;51.956;12.980;2023-04-06T03:50:35;-0.50;97.30
29201;DHT22;16244;51.956;12.980;2023-04-06T03:53:02;-0.50;97.00
29201;DHT22;16244;51.956;12.980;2023-04-06T03:55:30;-0.50;97.20
29201;DHT22;16244;51.956;12.980;2023-04-06T03:57:59;-0.50;97.20
29201;DHT22;16244;51.956;12.980;2023-04-06T04:00:27;-0.50;97.00
29201;DHT22;16244;51.956;12.980;2023-04-06T04:02:54;-0.50;97.20
29201;DHT22;16244;51.956;12.980;2023-04-06T04:05:22;-0.60;96.50
29201;DHT22;16244;51.956;12.980;2023-04-06T04:07:51;-0.60;97.10
29201;DHT22;16244;51.956;12.980;2023-04-06T04:10:18;-0.80;97.80
29201;DHT22;16244;51.956;12.980;2023-04-06T04:12:46;-0.80;98.10
29201;DHT22;16244;51.956;12.980;2023-04-06T04:15:15;-0.80;98.50
29201;DHT22;16244;51.956;12.980;2023-04-06T04:17:42;-0.90;98.70
29201;DHT22;16244;51.956;12.980;2023-04-06T04:20:13;-0.80;98.70
29201;DHT22;16244;51.956;12.980;2023-04-06T04:22:40;-0.80;98.70
29201;DHT22;16244;51.956;12.980;2023-04-06T04:25:08;-0.70;98.40
29201;DHT22;16244;51.956;12.980;2023-04-06T04:27:36;-0.70;98.00
29201;DHT22;16244;51.956;12.980;2023-04-06T04:30:04;-0.70;97.60
29201;DHT22;16244;51.956;12.980;2023-04-06T04:32:34;-0.70;97.70
29201;DHT22;16244;51.956;12.980;2023-04-06T04:35:01;-0.70;97.30
29201;DHT22;16244;51.956;12.980;2023-04-06T04:37:29;-0.70;97.00
29201;DHT22;16244;51.956;12.980;2023-04-06T04:39:56;-0.70;97.10
29201;DHT22;16244;51.956;12.980;2023-04-06T04:42:24;-0.70;97.10
29201;DHT22;16244;51.956;12.980;2023-04-06T04:44:51;-0.70;97.10
29201;DHT22;16244;51.956;12.980;2023-04-06T04:47:19;-0.70;97.60
29201;DHT22;16244;51.956;12.980;2023-04-06T04:49:47;-0.60;98.10
29201;DHT22;16244;51.956;12.980;2023-04-06T04:52:15;-0.70;97.90
29201;DHT22;16244;51.956;12.980;2023-04-06T04:54:43;-0.70;97.40
29201;DHT22;16244;51.956;12.980;2023-04-06T04:57:10;-0.80;97.60
29201;DHT22;16244;51.956;12.980;2023-04-06T04:59:38;-0.90;98.50
29201;DHT22;16244;51.956;12.980;2023-04-06T05:02:05;-1.00;98.70
29201;DHT22;16244;51.956;12.980;2023-04-06T05:04:32;-0.90;99.20
29201;DHT22;16244;51.956;12.980;2023-04-06T05:07:06;-0.80;99.50
29201;DHT22;16244;51.956;12.980;2023-04-06T05:09:34;-0.70;99.50
29201;DHT22;16244;51.956;12.980;2023-04-06T05:12:02;-0.70;99.70
29201;DHT22;16244;51.956;12.980;2023-04-06T05:14:29;-0.60;99.80
29201;DHT22;16244;51.956;12.980;2023-04-06T05:16:57;-0.40;99.20
29201;DHT22;16244;51.956;12.980;2023-04-06T05:19:24;-0.40;98.80
29201;DHT22;16244;51.956;12.980;2023-04-06T05:21:51;-0.40;98.50
29201;DHT22;16244;51.956;12.980;2023-04-06T05:24:20;-0.40;98.20
29201;DHT22;16244;51.956;12.980;2023-04-06T05:26:48;-0.40;98.40
29201;DHT22;16244;51.956;12.980;2023-04-06T05:29:16;-0.40;98.30
29201;DHT22;16244;51.956;12.980;2023-04-06T05:31:44;-0.30;98.30
29201;DHT22;16244;51.956;12.980;2023-04-06T05:34:11;-0.20;98.50
29201;DHT22;16244;51.956;12.980;2023-04-06T05:36:39;-0.20;98.60
29201;DHT22;16244;51.956;12.980;2023-04-06T05:39:07;0.00;98.40
29201;DHT22;16244;51.956;12.980;2023-04-06T05:41:36;0.00;98.30
29201;DHT22;16244;51.956;12.980;2023-04-06T05:44:03;0.10;98.20
29201;DHT22;16244;51.956;12.980;2023-04-06T05:46:31;0.20;97.90
29201;DHT22;16244;51.956;12.980;2023-04-06T05:48:58;0.30;98.00
29201;DHT22;16244;51.956;12.980;2023-04-06T05:51:25;0.40;98.00
29201;DHT22;16244;51.956;12.980;2023-04-06T05:53:53;0.50;97.90
29201;DHT22;16244;51.956;12.980;2023-04-06T05:56:21;0.60;97.80
29201;DHT22;16244;51.956;12.980;2023-04-06T05:58:51;0.70;97.70
29201;DHT22;16244;51.956;12.980;2023-04-06T06:01:18;0.80;97.80
29201;DHT22;16244;51.956;12.980;2023-04-06T06:03:46;0.50;98.50
29201;DHT22;16244;51.956;12.980;2023-04-06T06:06:13;0.30;99.80
29201;DHT22;16244;51.956;12.980;2023-04-06T06:08:41;0.50;99.90
29201;DHT22;16244;51.956;12.980;2023-04-06T06:11:08;0.70;99.90
29201;DHT22;16244;51.956;12.980;2023-04-06T06:13:35;1.00;99.90
29201;DHT22;16244;51.956;12.980;2023-04-06T06:16:04;1.10;99.50
29201;DHT22;16244;51.956;12.980;2023-04-06T06:18:32;1.20;98.70
29201;DHT22;16244;51.956;12.980;2023-04-06T06:20:59;1.50;99.00
29201;DHT22;16244;51.956;12.980;2023-04-06T06:23:27;1.70;98.00
29201;DHT22;16244;51.956;12.980;2023-04-06T06:25:54;2.00;97.80
29201;DHT22;16244;51.956;12.980;2023-04-06T06:28:24;2.00;97.70
29201;DHT22;16244;51.956;12.980;2023-04-06T06:30:52;2.20;97.50
29201;DHT22;16244;51.956;12.980;2023-04-06T06:33:21;2.50;96.90
29201;DHT22;16244;51.956;12.980;2023-04-06T06:35:49;2.60;96.30
29201;DHT22;16244;51.956;12.980;2023-04-06T06:38:17;2.70;95.80
29201;DHT22;16244;51.956;12.980;2023-04-06T06:40:45;2.80;95.60
29201;DHT22;16244;51.956;12.980;2023-04-06T06:43:13;3.00;95.20
29201;DHT22;16244;51.956;12.980;2023-04-06T06:45:41;3.10;94.70
29201;DHT22;16244;51.956;12.980;2023-04-06T06:48:08;3.00;95.60
29201;DHT22;16244;51.956;12.980;2023-04-06T06:50:37;3.20;95.40
29201;DHT22;16244;51.956;12.980;2023-04-06T06:53:04;3.50;95.40
29201;DHT22;16244;51.956;12.980;2023-04-06T06:55:32;3.80;95.10
29201;DHT22;16244;51.956;12.980;2023-04-06T06:57:59;4.00;93.10
29201;DHT22;16244;51.956;12.980;2023-04-06T07:00:27;4.00;93.20
29201;DHT22;16244;51.956;12.980;2023-04-06T07:02:54;4.20;93.90
29201;DHT22;16244;51.956;12.980;2023-04-06T07:05:22;4.40;93.60
29201;DHT22;16244;51.956;12.980;2023-04-06T07:07:50;4.60;93.10
29201;DHT22;16244;51.956;12.980;2023-04-06T07:10:18;5.00;92.80
29201;DHT22;16244;51.956;12.980;2023-04-06T07:12:45;5.30;91.50
29201;DHT22;16244;51.956;12.980;2023-04-06T07:15:13;5.30;91.60
29201;DHT22;16244;51.956;12.980;2023-04-06T07:17:40;5.50;91.20
29201;DHT22;16244;51.956;12.980;2023-04-06T07:20:10;5.80;90.30
29201;DHT22;16244;51.956;12.980;2023-04-06T07:22:38;6.10;89.00
29201;DHT22;16244;51.956;12.980;2023-04-06T07:25:07;6.40;84.40
29201;DHT22;16244;51.956;12.980;2023-04-06T07:27:35;6.60;84.10
29201;DHT22;16244;51.956;12.980;2023-04-06T07:30:03;6.60;81.40
29201;DHT22;16244;51.956;12.980;2023-04-06T07:32:30;6.90;82.30
29201;DHT22;16244;51.956;12.980;2023-04-06T07:34:58;6.70;76.40
29201;DHT22;16244;51.956;12.980;2023-04-06T07:37:25;6.80;79.70
29201;DHT22;16244;51.956;12.980;2023-04-06T07:39:52;7.30;80.90
29201;DHT22;16244;51.956;12.980;2023-04-06T07:42:21;7.60;78.60
29201;DHT22;16244;51.956;12.980;2023-04-06T07:44:49;7.80;75.10
29201;DHT22;16244;51.956;12.980;2023-04-06T07:47:16;8.20;75.50
29201;DHT22;16244;51.956;12.980;2023-04-06T07:49:43;8.60;74.50
29201;DHT22;16244;51.956;12.980;2023-04-06T07:52:11;8.90;70.40
29201;DHT22;16244;51.956;12.980;2023-04-06T07:54:40;9.30;66.40
29201;DHT22;16244;51.956;12.980;2023-04-06T07:57:07;9.50;63.80
29201;DHT22;16244;51.956;12.980;2023-04-06T07:59:36;9.60;65.10
29201;DHT22;16244;51.956;12.980;2023-04-06T08:02:03;9.80;67.10
29201;DHT22;16244;51.956;12.980;2023-04-06T08:04:31;10.10;65.20
29201;DHT22;16244;51.956;12.980;2023-04-06T08:06:58;10.10;62.90
29201;DHT22;16244;51.956;12.980;2023-04-06T08:09:26;10.20;62.20
29201;DHT22;16244;51.956;12.980;2023-04-06T08:11:53;9.90;63.20
29201;DHT22;16244;51.956;12.980;2023-04-06T08:14:21;10.10;63.30
29201;DHT22;16244;51.956;12.980;2023-04-06T08:16:49;10.10;63.30
29201;DHT22;16244;51.956;12.980;2023-04-06T08:19:17;10.30;59.90
29201;DHT22;16244;51.956;12.980;2023-04-06T08:21:45;10.60;57.60
29201;DHT22;16244;51.956;12.980;2023-04-06T08:24:13;10.70;59.50
29201;DHT22;16244;51.956;12.980;2023-04-06T08:26:41;11.10;56.20
29201;DHT22;16244;51.956;12.980;2023-04-06T08:29:08;11.10;55.20
29201;DHT22;16244;51.956;12.980;2023-04-06T08:31:36;11.40;50.80
29201;DHT22;16244;51.956;12.980;2023-04-06T08:34:05;11.70;52.20
29201;DHT22;16244;51.956;12.980;2023-04-06T08:36:33;11.90;50.60
29201;DHT22;16244;51.956;12.980;2023-04-06T08:39:00;11.90;49.80
29201;DHT22;16244;51.956;12.980;2023-04-06T08:41:28;12.00;52.40
29201;DHT22;16244;51.956;12.980;2023-04-06T08:43:57;12.50;49.90
29201;DHT22;16244;51.956;12.980;2023-04-06T08:46:25;12.30;47.90
29201;DHT22;16244;51.956;12.980;2023-04-06T08:48:57;12.40;47.50
29201;DHT22;16244;51.956;12.980;2023-04-06T08:51:27;12.80;49.00
29201;DHT22;16244;51.956;12.980;2023-04-06T08:53:56;13.20;47.50
29201;DHT22;16244;51.956;12.980;2023-04-06T08:56:25;13.70;45.90
29201;DHT22;16244;51.956;12.980;2023-04-06T08:58:54;14.10;46.30
29201;DHT22;16244;51.956;12.980;2023-04-06T09:01:25;14.30;47.60
29201;DHT22;16244;51.956;12.980;2023-04-06T09:03:56;14.30;46.90
29201;DHT22;16244;51.956;12.980;2023-04-06T09:06:26;14.10;43.80
29201;DHT22;16244;51.956;12.980;2023-04-06T09:08:54;14.30;45.20
29201;DHT22;16244;51.956;12.980;2023-04-06T09:11:22;14.80;44.90
29201;DHT22;16244;51.956;12.980;2023-04-06T09:13:52;15.10;42.40
29201;DHT22;16244;51.956;12.980;2023-04-06T09:16:20;14.70;42.90
29201;DHT22;16244;51.956;12.980;2023-04-06T09:18:49;14.70;40.90
29201;DHT22;16244;51.956;12.980;2023-04-06T09:21:18;14.40;42.50
29201;DHT22;16244;51.956;12.980;2023-04-06T09:23:47;14.40;42.80
29201;DHT22;16244;51.956;12.980;2023-04-06T09:26:16;14.50;42.30
29201;DHT22;16244;51.956;12.980;2023-04-06T09:28:44;14.50;40.30
29201;DHT22;16244;51.956;12.980;2023-04-06T09:31:13;14.70;43.70
29201;DHT22;16244;51.956;12.980;2023-04-06T09:33:42;14.20;43.00
29201;DHT22;16244;51.956;12.980;2023-04-06T09:36:10;14.60;44.10
29201;DHT22;16244;51.956;12.980;2023-04-06T09:38:39;14.90;41.00
29201;DHT22;16244;51.956;12.980;2023-04-06T09:41:22;14.60;39.60
29201;DHT22;16244;51.956;12.980;2023-04-06T09:43:51;14.70;42.10
29201;DHT22;16244;51.956;12.980;2023-04-06T09:46:21;14.60;42.60
29201;DHT22;16244;51.956;12.980;2023-04-06T09:48:49;14.20;43.40
29201;DHT22;16244;51.956;12.980;2023-04-06T09:51:18;14.20;41.80
29201;DHT22;16244;51.956;12.980;2023-04-06T09:53:52;13.90;43.50
29201;DHT22;16244;51.956;12.980;2023-04-06T09:56:24;14.10;44.40
29201;DHT22;16244;51.956;12.980;2023-04-06T09:58:57;13.80;39.60
29201;DHT22;16244;51.956;12.980;2023-04-06T10:01:29;14.10;41.40
29201;DHT22;16244;51.956;12.980;2023-04-06T10:04:05;14.40;39.70
29201;DHT22;16244;51.956;12.980;2023-04-06T10:06:36;14.00;39.20
29201;DHT22;16244;51.956;12.980;2023-04-06T10:09:06;13.60;39.80
29201;DHT22;16244;51.956;12.980;2023-04-06T10:11:35;13.00;42.50
29201;DHT22;16244;51.956;12.980;2023-04-06T10:14:03;12.80;41.00
29201;DHT22;16244;51.956;12.980;2023-04-06T10:16:31;13.00;44.30
29201;DHT22;16244;51.956;12.980;2023-04-06T10:19:04;13.30;42.20
29201;DHT22;16244;51.956;12.980;2023-04-06T10:21:35;13.70;41.50
29201;DHT22;16244;51.956;12.980;2023-04-06T10:24:08;13.20;43.30
29201;DHT22;16244;51.956;12.980;2023-04-06T10:26:38;12.80;43.70
29201;DHT22;16244;51.956;12.980;2023-04-06T10:29:06;12.50;42.00
29201;DHT22;16244;51.956;12.980;2023-04-06T10:31:41;11.90;44.60
29201;DHT22;16244;51.956;12.980;2023-04-06T10:34:09;12.10;47.50
29201;DHT22;16244;51.956;12.980;2023-04-06T10:36:36;12.20;41.50
29201;DHT22;16244;51.956;12.980;2023-04-06T10:39:05;12.20;44.00
29201;DHT22;16244;51.956;12.980;2023-04-06T10:41:34;12.20;44.30
29201;DHT22;16244;51.956;12.980;2023-04-06T10:44:03;12.30;44.40
29201;DHT22;16244;51.956;12.980;2023-04-06T10:46:32;12.20;44.40
29201;DHT22;16244;51.956;12.980;2023-04-06T10:49:10;12.10;45.10
29201;DHT22;16244;51.956;12.980;2023-04-06T10:51:39;12.30;44.50
29201;DHT22;16244;51.956;12.980;2023-04-06T10:54:07;12.70;44.50
29201;DHT22;16244;51.956;12.980;2023-04-06T10:56:37;13.20;43.00
29201;DHT22;16244;51.956;12.980;2023-04-06T10:59:06;13.40;38.40
29201;DHT22;16244;51.956;12.980;2023-04-06T11:01:34;13.90;39.60
29201;DHT22;16244;51.956;12.980;2023-04-06T11:04:02;13.80;40.20
29201;DHT22;16244;51.956;12.980;2023-04-06T11:06:30;13.10;38.60
29201;DHT22;16244;51.956;12.980;2023-04-06T11:08:58;13.00;40.40
29201;DHT22;16244;51.956;12.980;2023-04-06T11:11:26;12.70;40.90
29201;DHT22;16244;51.956;12.980;2023-04-06T11:13:55;12.40;39.30
29201;DHT22;16244;51.956;12.980;2023-04-06T11:16:26;12.30;42.00
29201;DHT22;16244;51.956;12.980;2023-04-06T11:18:55;12.30;38.90
29201;DHT22;16244;51.956;12.980;2023-04-06T11:21:34;12.00;40.30
29201;DHT22;16244;51.956;12.980;2023-04-06T11:24:09;11.90;43.20
29201;DHT22;16244;51.956;12.980;2023-04-06T11:26:42;12.40;39.70
29201;DHT22;16244;51.956;12.980;2023-04-06T11:29:10;13.20;36.60
29201;DHT22;16244;51.956;12.980;2023-04-06T11:31:41;14.10;37.50
29201;DHT22;16244;51.956;12.980;2023-04-06T11:34:12;14.00;32.10
29201;DHT22;16244;51.956;12.980;2023-04-06T11:36:41;13.80;35.20
29201;DHT22;16244;51.956;12.980;2023-04-06T11:39:09;13.70;36.10
29201;DHT22;16244;51.956;12.980;2023-04-06T11:41:37;13.60;37.10
29201;DHT22;16244;51.956;12.980;2023-04-06T11:44:05;13.50;37.70
29201;DHT22;16244;51.956;12.980;2023-04-06T11:46:33;13.30;35.90
29201;DHT22;16244;51.956;12.980;2023-04-06T11:49:02;13.00;37.40
29201;DHT22;16244;51.956;12.980;2023-04-06T11:51:30;12.80;38.10
29201;DHT22;16244;51.956;12.980;2023-04-06T11:53:57;12.70;40.50
29201;DHT22;16244;51.956;12.980;2023-04-06T11:56:26;12.70;40.80
29201;DHT22;16244;51.956;12.980;2023-04-06T11:58:57;12.80;41.30
29201;DHT22;16244;51.956;12.980;2023-04-06T12:01:26;12.80;41.50
29201;DHT22;16244;51.956;12.980;2023-04-06T12:03:53;12.60;40.70
29201;DHT22;16244;51.956;12.980;2023-04-06T12:06:23;12.50;40.30
29201;DHT22;16244;51.956;12.980;2023-04-06T12:08:51;12.40;40.00
29201;DHT22;16244;51.956;12.980;2023-04-06T12:11:19;12.30;39.50
29201;DHT22;16244;51.956;12.980;2023-04-06T12:13:48;11.80;42.20
29201;DHT22;16244;51.956;12.980;2023-04-06T12:16:15;11.70;40.00
29201;DHT22;16244;51.956;12.980;2023-04-06T12:18:42;11.60;40.30
29201;DHT22;16244;51.956;12.980;2023-04-06T12:21:10;11.10;39.80
29201;DHT22;16244;51.956;12.980;2023-04-06T12:23:39;11.10;41.40
29201;DHT22;16244;51.956;12.980;2023-04-06T12:26:06;11.40;44.80
29201;DHT22;16244;51.956;12.980;2023-04-06T12:28:34;11.60;41.80
29201;DHT22;16244;51.956;12.980;2023-04-06T12:31:01;11.50;42.30
29201;DHT22;16244;51.956;12.980;2023-04-06T12:33:29;11.60;42.40
29201;DHT22;16244;51.956;12.980;2023-04-06T12:35:56;11.40;41.90
29201;DHT22;16244;51.956;12.980;2023-04-06T12:38:23;11.40;40.10
29201;DHT22;16244;51.956;12.980;2023-04-06T12:40:52;11.60;42.80
29201;DHT22;16244;51.956;12.980;2023-04-06T12:43:20;11.70;41.70
29201;DHT22;16244;51.956;12.980;2023-04-06T12:45:47;11.80;42.00
29201;DHT22;16244;51.956;12.980;2023-04-06T12:48:15;11.90;40.10
29201;DHT22;16244;51.956;12.980;2023-04-06T12:50:42;11.80;42.00
29201;DHT22;16244;51.956;12.980;2023-04-06T12:53:09;11.80;42.20
29201;DHT22;16244;51.956;12.980;2023-04-06T12:55:37;11.90;42.40
29201;DHT22;16244;51.956;12.980;2023-04-06T12:58:05;11.60;42.20
29201;DHT22;16244;51.956;12.980;2023-04-06T13:00:33;11.70;44.10
29201;DHT22;16244;51.956;12.980;2023-04-06T13:03:01;11.70;41.10
29201;DHT22;16244;51.956;12.980;2023-04-06T13:05:28;11.50;41.40
29201;DHT22;16244;51.956;12.980;2023-04-06T13:07:55;11.40;40.10
29201;DHT22;16244;51.956;12.980;2023-04-06T13:10:23;11.40;42.10
29201;DHT22;16244;51.956;12.980;2023-04-06T13:12:50;11.20;41.60
29201;DHT22;16244;51.956;12.980;2023-04-06T13:15:19;11.30;42.40
29201;DHT22;16244;51.956;12.980;2023-04-06T13:17:46;11.50;42.60
29201;DHT22;16244;51.956;12.980;2023-04-06T13:20:14;11.60;42.40
29201;DHT22;16244;51.956;12.980;2023-04-06T13:22:41;11.50;41.90
29201;DHT22;16244;51.956;12.980;2023-04-06T13:25:08;11.30;40.40
29201;DHT22;16244;51.956;12.980;2023-04-06T13:27:36;11.20;44.50
29201;DHT22;16244;51.956;12.980;2023-04-06T13:30:05;11.20;44.30
29201;DHT22;16244;51.956;12.980;2023-04-06T13:32:35;11.10;44.30
29201;DHT22;16244;51.956;12.980;2023-04-06T13:35:03;11.20;43.40
29201;DHT22;16244;51.956;12.980;2023-04-06T13:37:31;11.10;40.50
29201;DHT22;16244;51.956;12.980;2023-04-06T13:39:58;11.10;42.20
29201;DHT22;16244;51.956;12.980;2023-04-06T13:42:27;11.20;41.60
29201;DHT22;16244;51.956;12.980;2023-04-06T13:44:54;11.20;42.40
29201;DHT22;16244;51.956;12.980;2023-04-06T13:47:22;11.40;43.00
29201;DHT22;16244;51.956;12.980;2023-04-06T13:49:51;11.30;45.00
29201;DHT22;16244;51.956;12.980;2023-04-06T13:52:19;11.30;47.80
29201;DHT22;16244;51.956;12.980;2023-04-06T13:54:48;11.20;46.20
29201;DHT22;16244;51.956;12.980;2023-04-06T13:57:15;11.10;43.50
29201;DHT22;16244;51.956;12.980;2023-04-06T13:59:43;10.70;43.40
29201;DHT22;16244;51.956;12.980;2023-04-06T14:02:10;10.60;47.40
29201;DHT22;16244;51.956;12.980;2023-04-06T14:04:38;10.70;47.90
29201;DHT22;16244;51.956;12.980;2023-04-06T14:07:06;10.70;48.30
29201;DHT22;16244;51.956;12.980;2023-04-06T14:09:34;10.70;45.60
29201;DHT22;16244;51.956;12.980;2023-04-06T14:12:02;10.90;47.20
29201;DHT22;16244;51.956;12.980;2023-04-06T14:14:29;11.00;49.20
29201;DHT22;16244;51.956;12.980;2023-04-06T14:16:57;11.10;49.00
29201;DHT22;16244;51.956;12.980;2023-04-06T14:19:24;11.10;47.60
29201;DHT22;16244;51.956;12.980;2023-04-06T14:21:51;11.00;49.00
29201;DHT22;16244;51.956;12.980;2023-04-06T14:24:20;10.90;45.60
29201;DHT22;16244;51.956;12.980;2023-04-06T14:26:48;10.90;47.60
29201;DHT22;16244;51.956;12.980;2023-04-06T14:29:16;11.00;47.80
29201;DHT22;16244;51.956;12.980;2023-04-06T14:31:45;11.10;47.60
29201;DHT22;16244;51.956;12.980;2023-04-06T14:34:12;11.20;49.20
29201;DHT22;16244;51.956;12.980;2023-04-06T14:36:40;11.30;44.70
29201;DHT22;16244;51.956;12.980;2023-04-06T14:39:07;11.10;42.00
29201;DHT22;16244;51.956;12.980;2023-04-06T14:41:37;11.30;45.40
29201;DHT22;16244;51.956;12.980;2023-04-06T14:44:04;11.30;48.00
29201;DHT22;16244;51.956;12.980;2023-04-06T14:46:32;11.50;47.30
29201;DHT22;16244;51.956;12.980;2023-04-06T14:49:00;11.60;45.00
29201;DHT22;16244;51.956;12.980;2023-04-06T14:51:27;11.60;43.10
29201;DHT22;16244;51.956;12.980;2023-04-06T14:53:55;11.70;41.90
29201;DHT22;16244;51.956;12.980;2023-04-06T14:56:23;12.20;48.00
29201;DHT22;16244;51.956;12.980;2023-04-06T14:58:52;12.70;44.70
29201;DHT22;16244;51.956;12.980;2023-04-06T15:01:19;13.30;42.10
29201;DHT22;16244;51.956;12.980;2023-04-06T15:03:47;13.40;41.20
29201;DHT22;16244;51.956;12.980;2023-04-06T15:06:15;13.70;44.90
29201;DHT22;16244;51.956;12.980;2023-04-06T15:08:43;14.30;41.70
29201;DHT22;16244;51.956;12.980;2023-04-06T15:11:12;14.30;40.40
29201;DHT22;16244;51.956;12.980;2023-04-06T15:13:40;14.50;40.10
29201;DHT22;16244;51.956;12.980;2023-04-06T15:16:09;14.20;38.60
29201;DHT22;16244;51.956;12.980;2023-04-06T15:18:36;13.90;42.60
29201;DHT22;16244;51.956;12.980;2023-04-06T15:21:03;13.90;41.70
29201;DHT22;16244;51.956;12.980;2023-04-06T15:23:31;14.00;41.90
29201;DHT22;16244;51.956;12.980;2023-04-06T15:26:00;14.10;43.50